Senshu Maru — JCIR — position and weather

sailwx.info

Track history (hours):
 
Tides and Currents Weather Stations Pressure Air Temp Water Temp Dewpoint Dewpoint Depression Visibility Wind Speed Wind Dir Waves Ship Positions

Oceanographic research ship Senshu Maru (Japan)

Detailed information on ship capabilities available from University of Delaware's Ocean Information Center.

Last reported at 2019-Dec-15 15:30 UTC. Time now 2020-Jan-25 01:55 UTC.
Position N 27°06' E 128°42'.
Warning: this ship's position is 40 days out of date.

Length 283 m; beam 44.8 m.

Type: Ship (hazmat cat A). MMSI: 431023000.

Date/timePositionNaut miles runAvg speedWind from/ knotsBaromVisibWave heightAir tempDewpointWater temp
2019-Dec-15 15:30N 27°06' E 128°42'6 0.8
2019-Dec-15 07:01N 27°00' E 128°38'5413.6
2019-Dec-15 03:02N 27°45' E 129°12'414.0
2019-Dec-15 02:46N 27°48' E 129°14'3014.9
2019-Dec-15 00:46N 28°10' E 129°37'1515.4
2019-Dec-14 23:48N 28°22' E 129°48'715.3
2019-Dec-14 23:19N 28°28' E 129°53'45 7.2
2019-Dec-14 17:01N 28°57' E 130°33'15 6.0
2019-Dec-14 14:32N 28°45' E 130°23'7514.3
2019-Dec-14 09:16N 29°28' E 131°33'32812.4
2019-Dec-13 06:57N 34°07' E 134°56'512.1
2019-Dec-13 06:30N 34°12' E 134°57'611.7
2019-Dec-13 06:00N 34°18' E 134°58'2013.5
2019-Dec-13 04:30N 34°32' E 135°16'7 2.9
2019-Dec-13 02:00N 34°34' E 135°24'0 0.0
2019-Dec-12 23:30N 34°34' E 135°24'0 0.0
2019-Dec-12 04:30N 34°34' E 135°24'14 5.8
2019-Dec-12 02:00N 34°26' E 135°09'714.5
2019-Dec-12 01:30N 34°21' E 135°03'1211.8
2019-Dec-12 00:30N 34°10' E 135°01'4 8.0
2019-Dec-12 00:00N 34°06' E 134°60'1610.7
2019-Dec-11 22:29N 33°50' E 134°58'  
Track history (hours):
 
Tides and Currents Weather Stations Pressure Air Temp Water Temp Dewpoint Dewpoint Depression Visibility Wind Speed Wind Dir Waves Ship Positions

Oceanographic research ship Senshu Maru (Japan)

Detailed information on ship capabilities available from University of Delaware's Ocean Information Center.

Last reported at 2019-Dec-15 15:30 UTC. Time now 2020-Jan-25 01:55 UTC.
Position N 27°06' E 128°42'.
Warning: this ship's position is 40 days out of date.

Length 283 m; beam 44.8 m.

Type: Ship (hazmat cat A). MMSI: 431023000.

Date/timePositionNaut miles runAvg speedWind from/ knotsBaromVisibWave heightAir tempDewpointWater temp
2019-Dec-15 15:30N 27°06' E 128°42'6 0.8
2019-Dec-15 07:01N 27°00' E 128°38'5413.6
2019-Dec-15 03:02N 27°45' E 129°12'414.0
2019-Dec-15 02:46N 27°48' E 129°14'3014.9
2019-Dec-15 00:46N 28°10' E 129°37'1515.4
2019-Dec-14 23:48N 28°22' E 129°48'715.3
2019-Dec-14 23:19N 28°28' E 129°53'45 7.2
2019-Dec-14 17:01N 28°57' E 130°33'15 6.0
2019-Dec-14 14:32N 28°45' E 130°23'7514.3
2019-Dec-14 09:16N 29°28' E 131°33'32812.4
2019-Dec-13 06:57N 34°07' E 134°56'512.1
2019-Dec-13 06:30N 34°12' E 134°57'611.7
2019-Dec-13 06:00N 34°18' E 134°58'2013.5
2019-Dec-13 04:30N 34°32' E 135°16'7 2.9
2019-Dec-13 02:00N 34°34' E 135°24'0 0.0
2019-Dec-12 23:30N 34°34' E 135°24'0 0.0
2019-Dec-12 04:30N 34°34' E 135°24'14 5.8
2019-Dec-12 02:00N 34°26' E 135°09'714.5
2019-Dec-12 01:30N 34°21' E 135°03'1211.8
2019-Dec-12 00:30N 34°10' E 135°01'4 8.0
2019-Dec-12 00:00N 34°06' E 134°60'1610.7
2019-Dec-11 22:29N 33°50' E 134°58'  

Dump ship's entire track history